Terminal Aerodrome Forecast
Issued by NWS

Home | Current Version | Previous Version | Text Only | Print | Product List | Glossary On
Versions: 1 2 3 4 5 6 7 8 9 10 11 12 13 14 15 16 17 18 19 20 21 22
000
FTUS43 KIND 232323
TAFLAF
TAF
KLAF 232323Z 2400/2424 33009KT P6SM OVC010
     FM240600 32006KT 5SM BR OVC010
     FM241200 31005KT 5SM BR BKN008
     FM241500 31004KT 6SM BR BKN015
     FM241700 VRB03KT P6SM OVC030
      AMD LTD TO CLD VIS AND WIND 2402/2414=

USA.gov is the U.S. government's official web portal to all federal, state and local government web resources and services.